sensor_id;sensor_type;location;lat;lon;timestamp;pressure;altitude;pressure_sealevel;temperature;humidity
36254;BME280;22291;52.250;21.228;2023-01-16T00:00:00;99158.48;;;3.49;100.00
36254;BME280;22291;52.250;21.228;2023-01-16T00:02:26;99172.63;;;3.50;100.00
36254;BME280;22291;52.250;21.228;2023-01-16T00:04:53;99170.53;;;3.47;100.00
36254;BME280;22291;52.250;21.228;2023-01-16T00:07:19;99167.30;;;3.47;100.00
36254;BME280;22291;52.250;21.228;2023-01-16T00:09:46;99171.37;;;3.45;100.00
36254;BME280;22291;52.250;21.228;2023-01-16T00:12:12;99166.02;;;3.45;100.00
36254;BME280;22291;52.250;21.228;2023-01-16T00:14:39;99166.04;;;3.42;100.00
36254;BME280;22291;52.250;21.228;2023-01-16T00:17:06;99161.24;;;3.42;100.00
36254;BME280;22291;52.250;21.228;2023-01-16T00:19:33;99165.02;;;3.41;100.00
36254;BME280;22291;52.250;21.228;2023-01-16T00:22:00;99164.48;;;3.39;100.00
36254;BME280;22291;52.250;21.228;2023-01-16T00:24:27;99163.20;;;3.36;100.00
36254;BME280;22291;52.250;21.228;2023-01-16T00:26:54;99165.33;;;3.36;100.00
36254;BME280;22291;52.250;21.228;2023-01-16T00:29:21;99159.77;;;3.33;100.00
36254;BME280;22291;52.250;21.228;2023-01-16T00:31:47;99169.67;;;3.32;100.00
36254;BME280;22291;52.250;21.228;2023-01-16T00:34:14;99170.73;;;3.31;100.00
36254;BME280;22291;52.250;21.228;2023-01-16T00:36:40;99165.68;;;3.30;100.00
36254;BME280;22291;52.250;21.228;2023-01-16T00:39:08;99169.45;;;3.29;100.00
36254;BME280;22291;52.250;21.228;2023-01-16T00:41:34;99174.27;;;3.27;100.00
36254;BME280;22291;52.250;21.228;2023-01-16T00:44:00;99176.70;;;3.26;100.00
36254;BME280;22291;52.250;21.228;2023-01-16T00:46:26;99184.73;;;3.23;100.00
36254;BME280;22291;52.250;21.228;2023-01-16T00:48:56;99175.44;;;3.21;100.00
36254;BME280;22291;52.250;21.228;2023-01-16T00:51:24;99176.27;;;3.18;100.00
36254;BME280;22291;52.250;21.228;2023-01-16T00:53:51;99178.95;;;3.16;100.00
36254;BME280;22291;52.250;21.228;2023-01-16T00:56:17;99169.89;;;3.14;100.00
36254;BME280;22291;52.250;21.228;2023-01-16T00:58:44;99181.41;;;3.12;100.00
36254;BME280;22291;52.250;21.228;2023-01-16T01:01:11;99186.77;;;3.10;100.00
36254;BME280;22291;52.250;21.228;2023-01-16T01:03:37;99184.41;;;3.08;100.00
36254;BME280;22291;52.250;21.228;2023-01-16T01:06:09;99190.56;;;3.06;100.00
36254;BME280;22291;52.250;21.228;2023-01-16T01:08:40;99183.92;;;3.04;100.00
36254;BME280;22291;52.250;21.228;2023-01-16T01:11:13;99181.81;;;3.01;100.00
36254;BME280;22291;52.250;21.228;2023-01-16T01:13:41;99180.53;;;2.98;100.00
36254;BME280;22291;52.250;21.228;2023-01-16T01:16:09;99184.28;;;2.94;100.00
36254;BME280;22291;52.250;21.228;2023-01-16T01:18:38;99181.92;;;2.93;100.00
36254;BME280;22291;52.250;21.228;2023-01-16T01:21:05;99177.93;;;2.90;100.00
36254;BME280;22291;52.250;21.228;2023-01-16T01:23:33;99174.76;;;2.88;100.00
36254;BME280;22291;52.250;21.228;2023-01-16T01:26:05;99176.11;;;2.86;100.00
36254;BME280;22291;52.250;21.228;2023-01-16T01:28:37;99172.66;;;2.83;100.00
36254;BME280;22291;52.250;21.228;2023-01-16T01:31:08;99178.31;;;2.81;100.00
36254;BME280;22291;52.250;21.228;2023-01-16T01:33:38;99179.66;;;2.78;100.00
36254;BME280;22291;52.250;21.228;2023-01-16T01:36:07;99171.94;;;2.77;100.00
36254;BME280;22291;52.250;21.228;2023-01-16T01:38:34;99175.70;;;2.76;100.00
36254;BME280;22291;52.250;21.228;2023-01-16T01:41:03;99178.39;;;2.73;100.00
36254;BME280;22291;52.250;21.228;2023-01-16T01:43:45;99173.59;;;2.73;100.00
36254;BME280;22291;52.250;21.228;2023-01-16T01:46:21;99175.21;;;2.71;100.00
36254;BME280;22291;52.250;21.228;2023-01-16T01:49:00;99173.88;;;2.71;100.00
36254;BME280;22291;52.250;21.228;2023-01-16T01:51:32;99170.94;;;2.70;100.00
36254;BME280;22291;52.250;21.228;2023-01-16T01:54:06;99170.44;;;2.68;100.00
36254;BME280;22291;52.250;21.228;2023-01-16T01:56:37;99170.71;;;2.67;100.00
36254;BME280;22291;52.250;21.228;2023-01-16T01:59:30;99171.81;;;2.66;100.00
36254;BME280;22291;52.250;21.228;2023-01-16T02:02:00;99167.53;;;2.65;100.00
36254;BME280;22291;52.250;21.228;2023-01-16T02:04:32;99167.27;;;2.64;100.00
36254;BME280;22291;52.250;21.228;2023-01-16T02:07:04;99155.30;;;2.61;100.00
36254;BME280;22291;52.250;21.228;2023-01-16T02:09:34;99155.81;;;2.60;100.00
36254;BME280;22291;52.250;21.228;2023-01-16T02:12:03;99157.46;;;2.59;100.00
36254;BME280;22291;52.250;21.228;2023-01-16T02:14:37;99149.73;;;2.57;100.00
36254;BME280;22291;52.250;21.228;2023-01-16T02:17:15;99148.13;;;2.56;100.00
36254;BME280;22291;52.250;21.228;2023-01-16T02:20:08;99151.62;;;2.54;100.00
36254;BME280;22291;52.250;21.228;2023-01-16T02:42:32;99148.66;;;2.32;100.00
36254;BME280;22291;52.250;21.228;2023-01-16T02:48:06;99138.83;;;2.24;100.00
36254;BME280;22291;52.250;21.228;2023-01-16T02:53:16;99141.83;;;2.18;100.00
36254;BME280;22291;52.250;21.228;2023-01-16T02:55:53;99146.66;;;2.16;100.00
36254;BME280;22291;52.250;21.228;2023-01-16T02:58:27;99138.42;;;2.12;100.00
36254;BME280;22291;52.250;21.228;2023-01-16T03:00:59;99140.58;;;2.10;100.00
36254;BME280;22291;52.250;21.228;2023-01-16T03:12:15;99141.18;;;2.02;100.00
36254;BME280;22291;52.250;21.228;2023-01-16T03:15:02;99138.28;;;1.98;100.00
36254;BME280;22291;52.250;21.228;2023-01-16T03:20:30;99138.87;;;1.93;100.00
36254;BME280;22291;52.250;21.228;2023-01-16T03:25:47;99137.31;;;1.86;100.00
36254;BME280;22291;52.250;21.228;2023-01-16T03:31:15;99136.56;;;1.81;100.00
36254;BME280;22291;52.250;21.228;2023-01-16T03:34:01;99134.17;;;1.79;100.00
36254;BME280;22291;52.250;21.228;2023-01-16T03:39:43;99145.12;;;1.75;100.00
36254;BME280;22291;52.250;21.228;2023-01-16T03:42:26;99147.82;;;1.73;100.00
36254;BME280;22291;52.250;21.228;2023-01-16T03:44:57;99146.76;;;1.71;100.00
36254;BME280;22291;52.250;21.228;2023-01-16T03:47:33;99141.70;;;1.70;100.00
36254;BME280;22291;52.250;21.228;2023-01-16T03:50:03;99145.73;;;1.67;100.00
36254;BME280;22291;52.250;21.228;2023-01-16T03:52:35;99146.01;;;1.65;100.00
36254;BME280;22291;52.250;21.228;2023-01-16T03:58:08;99144.68;;;1.63;100.00
36254;BME280;22291;52.250;21.228;2023-01-16T04:00:41;99148.95;;;1.61;100.00
36254;BME280;22291;52.250;21.228;2023-01-16T04:03:19;99147.37;;;1.60;100.00
36254;BME280;22291;52.250;21.228;2023-01-16T04:06:01;99142.84;;;1.58;100.00
36254;BME280;22291;52.250;21.228;2023-01-16T04:08:35;99146.05;;;1.58;100.00
36254;BME280;22291;52.250;21.228;2023-01-16T04:11:06;99146.59;;;1.57;100.00
36254;BME280;22291;52.250;21.228;2023-01-16T04:13:36;99139.15;;;1.54;100.00
36254;BME280;22291;52.250;21.228;2023-01-16T04:16:09;99135.42;;;1.55;100.00
36254;BME280;22291;52.250;21.228;2023-01-16T04:18:38;99141.03;;;1.54;100.00
36254;BME280;22291;52.250;21.228;2023-01-16T04:21:08;99140.20;;;1.53;100.00
36254;BME280;22291;52.250;21.228;2023-01-16T04:23:36;99146.36;;;1.51;100.00
36254;BME280;22291;52.250;21.228;2023-01-16T04:26:04;99146.36;;;1.51;100.00
36254;BME280;22291;52.250;21.228;2023-01-16T04:28:30;99147.45;;;1.50;100.00
36254;BME280;22291;52.250;21.228;2023-01-16T04:30:58;99143.72;;;1.48;100.00
36254;BME280;22291;52.250;21.228;2023-01-16T04:33:24;99145.58;;;1.48;100.00
36254;BME280;22291;52.250;21.228;2023-01-16T04:35:53;99150.94;;;1.45;100.00
36254;BME280;22291;52.250;21.228;2023-01-16T04:38:19;99151.75;;;1.43;100.00
36254;BME280;22291;52.250;21.228;2023-01-16T04:40:45;99146.70;;;1.42;100.00
36254;BME280;22291;52.250;21.228;2023-01-16T04:43:11;99145.64;;;1.40;100.00
36254;BME280;22291;52.250;21.228;2023-01-16T04:45:41;99146.70;;;1.39;100.00
36254;BME280;22291;52.250;21.228;2023-01-16T04:48:08;99152.05;;;1.37;100.00
36254;BME280;22291;52.250;21.228;2023-01-16T04:50:35;99149.91;;;1.36;100.00
36254;BME280;22291;52.250;21.228;2023-01-16T04:53:01;99152.88;;;1.35;100.00
36254;BME280;22291;52.250;21.228;2023-01-16T04:55:27;99156.88;;;1.32;100.00
36254;BME280;22291;52.250;21.228;2023-01-16T04:57:53;99155.81;;;1.30;100.00
36254;BME280;22291;52.250;21.228;2023-01-16T05:00:21;99161.68;;;1.27;100.00
36254;BME280;22291;52.250;21.228;2023-01-16T05:02:47;99166.25;;;1.24;100.00
36254;BME280;22291;52.250;21.228;2023-01-16T05:05:15;99162.50;;;1.25;100.00
36254;BME280;22291;52.250;21.228;2023-01-16T05:07:42;99154.27;;;1.24;100.00
36254;BME280;22291;52.250;21.228;2023-01-16T05:10:10;99151.33;;;1.23;100.00
36254;BME280;22291;52.250;21.228;2023-01-16T05:12:36;99152.39;;;1.22;100.00
36254;BME280;22291;52.250;21.228;2023-01-16T05:15:05;99144.97;;;1.19;100.00
36254;BME280;22291;52.250;21.228;2023-01-16T05:17:32;99151.36;;;1.18;100.00
36254;BME280;22291;52.250;21.228;2023-01-16T05:19:58;99153.23;;;1.18;100.00
36254;BME280;22291;52.250;21.228;2023-01-16T05:22:24;99152.69;;;1.16;100.00
36254;BME280;22291;52.250;21.228;2023-01-16T05:24:50;99150.29;;;1.14;100.00
36254;BME280;22291;52.250;21.228;2023-01-16T05:27:16;99145.27;;;1.13;100.00
36254;BME280;22291;52.250;21.228;2023-01-16T05:29:42;99152.71;;;1.13;100.00
36254;BME280;22291;52.250;21.228;2023-01-16T05:32:08;99146.05;;;1.10;100.00
36254;BME280;22291;52.250;21.228;2023-01-16T05:34:35;99147.92;;;1.10;100.00
36254;BME280;22291;52.250;21.228;2023-01-16T05:37:01;99141.54;;;1.08;100.00
36254;BME280;22291;52.250;21.228;2023-01-16T05:39:28;99136.21;;;1.08;100.00
36254;BME280;22291;52.250;21.228;2023-01-16T05:41:54;99138.88;;;1.08;100.00
36254;BME280;22291;52.250;21.228;2023-01-16T05:44:20;99139.42;;;1.05;100.00
36254;BME280;22291;52.250;21.228;2023-01-16T05:46:48;99137.03;;;1.04;100.00
36254;BME280;22291;52.250;21.228;2023-01-16T05:49:16;99129.34;;;1.02;100.00
36254;BME280;22291;52.250;21.228;2023-01-16T05:51:42;99134.39;;;1.01;100.00
36254;BME280;22291;52.250;21.228;2023-01-16T05:54:11;99134.66;;;1.00;100.00
36254;BME280;22291;52.250;21.228;2023-01-16T05:56:38;99140.02;;;0.97;100.00
36254;BME280;22291;52.250;21.228;2023-01-16T05:59:06;99134.41;;;0.93;100.00
36254;BME280;22291;52.250;21.228;2023-01-16T06:01:34;99128.05;;;0.92;100.00
36254;BME280;22291;52.250;21.228;2023-01-16T06:04:00;99124.05;;;0.89;100.00
36254;BME280;22291;52.250;21.228;2023-01-16T06:06:28;99123.52;;;0.90;100.00
36254;BME280;22291;52.250;21.228;2023-01-16T06:08:54;99120.33;;;0.88;100.00
36254;BME280;22291;52.250;21.228;2023-01-16T06:11:20;99111.05;;;0.85;100.00
36254;BME280;22291;52.250;21.228;2023-01-16T06:13:47;99113.70;;;0.83;100.00
36254;BME280;22291;52.250;21.228;2023-01-16T06:16:13;99115.03;;;0.83;100.00
36254;BME280;22291;52.250;21.228;2023-01-16T06:18:39;99115.84;;;0.81;100.00
36254;BME280;22291;52.250;21.228;2023-01-16T06:21:05;99114.23;;;0.80;100.00
36254;BME280;22291;52.250;21.228;2023-01-16T06:23:31;99111.60;;;0.77;100.00
36254;BME280;22291;52.250;21.228;2023-01-16T06:25:57;99114.27;;;0.77;100.00
36254;BME280;22291;52.250;21.228;2023-01-16T06:28:23;99109.76;;;0.75;100.00
36254;BME280;22291;52.250;21.228;2023-01-16T06:30:52;99112.42;;;0.75;100.00
36254;BME280;22291;52.250;21.228;2023-01-16T06:33:20;99110.56;;;0.70;100.00
36254;BME280;22291;52.250;21.228;2023-01-16T06:35:46;99112.14;;;0.71;100.00
36254;BME280;22291;52.250;21.228;2023-01-16T06:38:14;99116.13;;;0.71;100.00
36254;BME280;22291;52.250;21.228;2023-01-16T06:40:40;99118.00;;;0.71;100.00
36254;BME280;22291;52.250;21.228;2023-01-16T06:43:09;99118.55;;;0.70;100.00
36254;BME280;22291;52.250;21.228;2023-01-16T06:45:35;99119.61;;;0.69;100.00
36254;BME280;22291;52.250;21.228;2023-01-16T06:48:01;99126.26;;;0.69;100.00
36254;BME280;22291;52.250;21.228;2023-01-16T06:50:29;99127.86;;;0.68;100.00
36254;BME280;22291;52.250;21.228;2023-01-16T06:52:55;99127.61;;;0.67;100.00
36254;BME280;22291;52.250;21.228;2023-01-16T06:55:23;99127.59;;;0.69;100.00
36254;BME280;22291;52.250;21.228;2023-01-16T06:57:49;99132.67;;;0.68;100.00
36254;BME280;22291;52.250;21.228;2023-01-16T07:00:18;99124.41;;;0.67;100.00
36254;BME280;22291;52.250;21.228;2023-01-16T07:02:54;99120.69;;;0.68;100.00
36254;BME280;22291;52.250;21.228;2023-01-16T07:05:23;99120.94;;;0.69;100.00
36254;BME280;22291;52.250;21.228;2023-01-16T07:07:55;99121.75;;;0.70;100.00
36254;BME280;22291;52.250;21.228;2023-01-16T07:10:24;99108.95;;;0.69;100.00
36254;BME280;22291;52.250;21.228;2023-01-16T07:12:53;99106.30;;;0.72;100.00
36254;BME280;22291;52.250;21.228;2023-01-16T07:15:21;99113.74;;;0.72;100.00
36254;BME280;22291;52.250;21.228;2023-01-16T07:18:15;99119.07;;;0.75;100.00
36254;BME280;22291;52.250;21.228;2023-01-16T07:21:05;99120.41;;;0.75;100.00
36254;BME280;22291;52.250;21.228;2023-01-16T07:24:07;99118.50;;;0.78;100.00
36254;BME280;22291;52.250;21.228;2023-01-16T07:26:38;99115.06;;;0.80;100.00
36254;BME280;22291;52.250;21.228;2023-01-16T07:29:09;99124.87;;;0.85;100.00
36254;BME280;22291;52.250;21.228;2023-01-16T07:31:37;99117.16;;;0.86;100.00
36254;BME280;22291;52.250;21.228;2023-01-16T07:34:04;99113.41;;;0.89;100.00
36254;BME280;22291;52.250;21.228;2023-01-16T07:36:30;99120.06;;;0.92;100.00
36254;BME280;22291;52.250;21.228;2023-01-16T07:38:56;99111.51;;;0.95;100.00
36254;BME280;22291;52.250;21.228;2023-01-16T07:41:22;99110.42;;;0.99;100.00
36254;BME280;22291;52.250;21.228;2023-01-16T07:43:51;99113.60;;;1.03;100.00
36254;BME280;22291;52.250;21.228;2023-01-16T07:46:18;99108.80;;;1.08;100.00
36254;BME280;22291;52.250;21.228;2023-01-16T07:48:46;99108.25;;;1.11;100.00
36254;BME280;22291;52.250;21.228;2023-01-16T07:51:12;99111.67;;;1.17;100.00
36254;BME280;22291;52.250;21.228;2023-01-16T07:53:39;99104.67;;;1.26;100.00
36254;BME280;22291;52.250;21.228;2023-01-16T07:56:07;99105.42;;;1.34;100.00
36254;BME280;22291;52.250;21.228;2023-01-16T07:58:33;99103.24;;;1.41;100.00
36254;BME280;22291;52.250;21.228;2023-01-16T08:01:01;99097.29;;;1.55;100.00
36254;BME280;22291;52.250;21.228;2023-01-16T08:03:27;99104.65;;;1.71;100.00
36254;BME280;22291;52.250;21.228;2023-01-16T08:05:58;99106.92;;;1.85;100.00
36254;BME280;22291;52.250;21.228;2023-01-16T08:08:26;99099.34;;;1.97;100.00
36254;BME280;22291;52.250;21.228;2023-01-16T08:10:55;99095.55;;;2.06;100.00
36254;BME280;22291;52.250;21.228;2023-01-16T08:13:25;99096.34;;;2.07;100.00
36254;BME280;22291;52.250;21.228;2023-01-16T08:15:53;99100.02;;;2.11;100.00
36254;BME280;22291;52.250;21.228;2023-01-16T08:18:21;99098.11;;;2.16;100.00
36254;BME280;22291;52.250;21.228;2023-01-16T08:20:48;99099.09;;;2.23;100.00
36254;BME280;22291;52.250;21.228;2023-01-16T08:23:17;99092.86;;;2.33;100.00
36254;BME280;22291;52.250;21.228;2023-01-16T08:25:44;99096.24;;;2.41;100.00
36254;BME280;22291;52.250;21.228;2023-01-16T08:28:10;99096.97;;;2.47;100.00
36254;BME280;22291;52.250;21.228;2023-01-16T08:30:36;99091.35;;;2.48;100.00
36254;BME280;22291;52.250;21.228;2023-01-16T08:33:02;99100.64;;;2.53;100.00
36254;BME280;22291;52.250;21.228;2023-01-16T08:35:30;99096.30;;;2.60;100.00
36254;BME280;22291;52.250;21.228;2023-01-16T08:37:56;99090.33;;;2.68;100.00
36254;BME280;22291;52.250;21.228;2023-01-16T08:40:23;99095.83;;;2.77;100.00
36254;BME280;22291;52.250;21.228;2023-01-16T08:42:50;99093.58;;;2.87;100.00
36254;BME280;22291;52.250;21.228;2023-01-16T08:45:34;99091.14;;;2.88;100.00
36254;BME280;22291;52.250;21.228;2023-01-16T08:48:23;99081.51;;;2.89;100.00
36254;BME280;22291;52.250;21.228;2023-01-16T08:51:15;99089.45;;;2.94;100.00
36254;BME280;22291;52.250;21.228;2023-01-16T08:53:49;99087.27;;;2.99;100.00
36254;BME280;22291;52.250;21.228;2023-01-16T08:56:20;99091.75;;;3.04;100.00
36254;BME280;22291;52.250;21.228;2023-01-16T08:58:48;99086.05;;;3.10;100.00
36254;BME280;22291;52.250;21.228;2023-01-16T09:01:18;99083.05;;;3.14;100.00
36254;BME280;22291;52.250;21.228;2023-01-16T09:03:46;99075.70;;;3.25;100.00
36254;BME280;22291;52.250;21.228;2023-01-16T09:06:14;99073.97;;;3.32;100.00
36254;BME280;22291;52.250;21.228;2023-01-16T09:08:42;99074.65;;;3.40;100.00
36254;BME280;22291;52.250;21.228;2023-01-16T09:11:08;99071.30;;;3.51;100.00
36254;BME280;22291;52.250;21.228;2023-01-16T09:13:56;99075.52;;;3.54;100.00
36254;BME280;22291;52.250;21.228;2023-01-16T09:16:26;99068.28;;;3.55;100.00
36254;BME280;22291;52.250;21.228;2023-01-16T09:18:55;99063.20;;;3.56;100.00
36254;BME280;22291;52.250;21.228;2023-01-16T09:21:23;99065.52;;;3.60;100.00
36254;BME280;22291;52.250;21.228;2023-01-16T09:23:52;99061.16;;;3.64;100.00
36254;BME280;22291;52.250;21.228;2023-01-16T09:26:21;99061.84;;;3.72;100.00
36254;BME280;22291;52.250;21.228;2023-01-16T09:28:48;99057.25;;;3.76;100.00
36254;BME280;22291;52.250;21.228;2023-01-16T09:31:16;99055.36;;;3.76;100.00
36254;BME280;22291;52.250;21.228;2023-01-16T09:33:46;99050.77;;;3.79;100.00
36254;BME280;22291;52.250;21.228;2023-01-16T09:36:18;99054.48;;;3.81;100.00
36254;BME280;22291;52.250;21.228;2023-01-16T09:38:44;99055.13;;;3.75;98.78
36254;BME280;22291;52.250;21.228;2023-01-16T09:41:14;99056.20;;;3.74;99.11
36254;BME280;22291;52.250;21.228;2023-01-16T09:44:02;99047.94;;;3.73;99.95
36254;BME280;22291;52.250;21.228;2023-01-16T09:46:38;99043.03;;;3.78;99.53
36254;BME280;22291;52.250;21.228;2023-01-16T09:49:26;99049.72;;;3.78;99.34
36254;BME280;22291;52.250;21.228;2023-01-16T09:51:59;99040.91;;;3.77;99.85
36254;BME280;22291;52.250;21.228;2023-01-16T09:54:53;99043.23;;;3.81;100.00
36254;BME280;22291;52.250;21.228;2023-01-16T09:57:41;99037.47;;;3.90;100.00
36254;BME280;22291;52.250;21.228;2023-01-16T10:00:29;99030.78;;;3.90;99.64
36254;BME280;22291;52.250;21.228;2023-01-16T10:02:58;99035.08;;;3.89;99.46
36254;BME280;22291;52.250;21.228;2023-01-16T10:05:28;99029.77;;;3.86;98.89
36254;BME280;22291;52.250;21.228;2023-01-16T10:08:04;99031.33;;;3.90;99.00
36254;BME280;22291;52.250;21.228;2023-01-16T10:10:53;99035.02;;;3.91;98.80
36254;BME280;22291;52.250;21.228;2023-01-16T10:16:32;99024.88;;;4.05;99.84
36254;BME280;22291;52.250;21.228;2023-01-16T10:22:10;99020.03;;;4.07;98.38
36254;BME280;22291;52.250;21.228;2023-01-16T10:27:58;99007.69;;;3.95;97.48
36254;BME280;22291;52.250;21.228;2023-01-16T10:30:34;98997.57;;;3.91;96.95
36254;BME280;22291;52.250;21.228;2023-01-16T10:35:46;98987.91;;;3.79;97.48
36254;BME280;22291;52.250;21.228;2023-01-16T10:41:18;98986.56;;;3.79;98.04
36254;BME280;22291;52.250;21.228;2023-01-16T10:44:29;98985.98;;;3.82;98.14
36254;BME280;22291;52.250;21.228;2023-01-16T10:47:18;98972.14;;;3.78;97.76
36254;BME280;22291;52.250;21.228;2023-01-16T10:50:08;98965.55;;;3.72;98.08
36254;BME280;22291;52.250;21.228;2023-01-16T10:52:37;98972.05;;;3.69;97.99
36254;BME280;22291;52.250;21.228;2023-01-16T10:55:06;98960.79;;;3.69;98.27
36254;BME280;22291;52.250;21.228;2023-01-16T10:57:37;98956.84;;;3.67;97.65
36254;BME280;22291;52.250;21.228;2023-01-16T11:00:13;98944.94;;;3.59;97.51
36254;BME280;22291;52.250;21.228;2023-01-16T11:02:44;98943.36;;;3.58;97.87
36254;BME280;22291;52.250;21.228;2023-01-16T11:08:18;98939.67;;;3.54;98.33
36254;BME280;22291;52.250;21.228;2023-01-16T11:10:51;98930.09;;;3.53;97.58
36254;BME280;22291;52.250;21.228;2023-01-16T11:13:20;98927.22;;;3.49;97.71
36254;BME280;22291;52.250;21.228;2023-01-16T11:19:26;98921.67;;;3.46;98.12
36254;BME280;22291;52.250;21.228;2023-01-16T11:21:57;98916.09;;;3.42;98.03
36254;BME280;22291;52.250;21.228;2023-01-16T11:24:39;98910.80;;;3.40;98.13
36254;BME280;22291;52.250;21.228;2023-01-16T11:27:12;98903.14;;;3.35;98.02
36254;BME280;22291;52.250;21.228;2023-01-16T11:29:41;98896.23;;;3.32;97.58
36254;BME280;22291;52.250;21.228;2023-01-16T11:32:12;98896.58;;;3.28;98.17
36254;BME280;22291;52.250;21.228;2023-01-16T11:34:45;98896.00;;;3.31;98.17
36254;BME280;22291;52.250;21.228;2023-01-16T11:37:16;98886.38;;;3.30;98.56
36254;BME280;22291;52.250;21.228;2023-01-16T11:39:48;98883.19;;;3.30;98.52
36254;BME280;22291;52.250;21.228;2023-01-16T11:42:18;98891.14;;;3.33;98.63
36254;BME280;22291;52.250;21.228;2023-01-16T11:45:19;98883.13;;;3.33;98.64
36254;BME280;22291;52.250;21.228;2023-01-16T11:48:00;98878.63;;;3.31;98.46
36254;BME280;22291;52.250;21.228;2023-01-16T11:50:33;98874.27;;;3.35;98.61
36254;BME280;22291;52.250;21.228;2023-01-16T11:53:04;98867.06;;;3.35;99.05
36254;BME280;22291;52.250;21.228;2023-01-16T11:55:34;98864.32;;;3.38;99.46
36254;BME280;22291;52.250;21.228;2023-01-16T11:58:09;98858.98;;;3.38;99.07
36254;BME280;22291;52.250;21.228;2023-01-16T12:00:56;98864.58;;;3.39;98.78
36254;BME280;22291;52.250;21.228;2023-01-16T12:12:11;98840.42;;;3.30;98.73
36254;BME280;22291;52.250;21.228;2023-01-16T12:15:07;98834.53;;;3.31;98.66
36254;BME280;22291;52.250;21.228;2023-01-16T12:18:03;98833.42;;;3.32;98.31
36254;BME280;22291;52.250;21.228;2023-01-16T12:21:00;98822.80;;;3.29;98.39
36254;BME280;22291;52.250;21.228;2023-01-16T12:28:55;98815.03;;;3.30;98.40
36254;BME280;22291;52.250;21.228;2023-01-16T12:47:17;98803.87;;;2.98;97.44
36254;BME280;22291;52.250;21.228;2023-01-16T12:50:03;98807.36;;;2.96;97.80
36254;BME280;22291;52.250;21.228;2023-01-16T12:58:27;98820.37;;;2.86;98.05
36254;BME280;22291;52.250;21.228;2023-01-16T13:03:57;98814.16;;;2.74;97.90
36254;BME280;22291;52.250;21.228;2023-01-16T13:06:55;98810.47;;;2.70;97.97
36254;BME280;22291;52.250;21.228;2023-01-16T13:15:27;98785.92;;;2.71;98.95
36254;BME280;22291;52.250;21.228;2023-01-16T13:18:03;98784.23;;;2.75;99.27
36254;BME280;22291;52.250;21.228;2023-01-16T13:20:34;98777.50;;;2.77;99.33
36254;BME280;22291;52.250;21.228;2023-01-16T13:23:17;98771.08;;;2.78;99.19
36254;BME280;22291;52.250;21.228;2023-01-16T13:25:45;98771.86;;;2.79;99.19
36254;BME280;22291;52.250;21.228;2023-01-16T13:28:24;98765.16;;;2.82;99.50
36254;BME280;22291;52.250;21.228;2023-01-16T13:31:15;98764.05;;;2.83;99.60
36254;BME280;22291;52.250;21.228;2023-01-16T13:33:45;98750.41;;;2.84;99.74
36254;BME280;22291;52.250;21.228;2023-01-16T13:42:17;98741.23;;;2.90;99.84
36254;BME280;22291;52.250;21.228;2023-01-16T13:44:49;98735.40;;;2.88;99.90
36254;BME280;22291;52.250;21.228;2023-01-16T13:47:39;98726.58;;;2.88;99.94
36254;BME280;22291;52.250;21.228;2023-01-16T13:50:28;98725.80;;;2.87;100.00
36254;BME280;22291;52.250;21.228;2023-01-16T13:53:07;98739.41;;;2.88;100.00
36254;BME280;22291;52.250;21.228;2023-01-16T13:55:35;98732.17;;;2.89;100.00
36254;BME280;22291;52.250;21.228;2023-01-16T14:01:00;98725.70;;;2.92;100.00
36254;BME280;22291;52.250;21.228;2023-01-16T14:03:34;98726.60;;;3.02;100.00
36254;BME280;22291;52.250;21.228;2023-01-16T14:06:19;98720.70;;;3.16;100.00
36254;BME280;22291;52.250;21.228;2023-01-16T14:14:46;98709.45;;;3.44;100.00
36254;BME280;22291;52.250;21.228;2023-01-16T14:17:27;98702.84;;;3.53;100.00
36254;BME280;22291;52.250;21.228;2023-01-16T14:20:01;98701.83;;;3.63;100.00
36254;BME280;22291;52.250;21.228;2023-01-16T14:22:38;98705.10;;;3.71;100.00
36254;BME280;22291;52.250;21.228;2023-01-16T14:25:31;98694.06;;;3.75;100.00
36254;BME280;22291;52.250;21.228;2023-01-16T14:28:01;98691.13;;;3.74;100.00
36254;BME280;22291;52.250;21.228;2023-01-16T14:30:32;98692.77;;;3.72;100.00
36254;BME280;22291;52.250;21.228;2023-01-16T14:33:04;98683.52;;;3.67;99.66
36254;BME280;22291;52.250;21.228;2023-01-16T14:35:50;98675.62;;;3.62;99.29
36254;BME280;22291;52.250;21.228;2023-01-16T14:38:20;98682.48;;;3.54;99.03
36254;BME280;22291;52.250;21.228;2023-01-16T14:40:54;98677.85;;;3.46;99.02
36254;BME280;22291;52.250;21.228;2023-01-16T14:46:53;98682.64;;;3.35;99.15
36254;BME280;22291;52.250;21.228;2023-01-16T14:50:00;98675.52;;;3.31;99.11
36254;BME280;22291;52.250;21.228;2023-01-16T14:52:49;98684.19;;;3.25;99.20
36254;BME280;22291;52.250;21.228;2023-01-16T14:58:16;98664.89;;;3.14;99.71
36254;BME280;22291;52.250;21.228;2023-01-16T15:00:47;98667.37;;;3.11;99.86
36254;BME280;22291;52.250;21.228;2023-01-16T15:03:26;98662.58;;;3.10;99.81
36254;BME280;22291;52.250;21.228;2023-01-16T15:05:52;98651.93;;;3.08;99.94
36254;BME280;22291;52.250;21.228;2023-01-16T15:08:24;98654.97;;;3.04;99.79
36254;BME280;22291;52.250;21.228;2023-01-16T15:10:55;98644.39;;;2.98;99.68
36254;BME280;22291;52.250;21.228;2023-01-16T15:13:31;98652.20;;;2.95;99.60
36254;BME280;22291;52.250;21.228;2023-01-16T15:16:03;98641.38;;;2.89;99.55
36254;BME280;22291;52.250;21.228;2023-01-16T15:18:42;98640.92;;;2.84;99.53
36254;BME280;22291;52.250;21.228;2023-01-16T15:21:27;98642.13;;;2.78;99.47
36254;BME280;22291;52.250;21.228;2023-01-16T15:24:16;98634.81;;;2.70;99.42
36254;BME280;22291;52.250;21.228;2023-01-16T15:26:59;98638.62;;;2.66;99.42
36254;BME280;22291;52.250;21.228;2023-01-16T15:29:35;98626.93;;;2.62;99.37
36254;BME280;22291;52.250;21.228;2023-01-16T15:32:16;98633.18;;;2.57;99.33
36254;BME280;22291;52.250;21.228;2023-01-16T15:34:46;98631.98;;;2.50;99.28